sensor_id;sensor_type;location;lat;lon;timestamp;pressure;altitude;pressure_sealevel;temperature;humidity
35443;BME280;21561;55.654;37.592;2023-07-13T00:01:54;98435.91;;;12.05;94.43
35443;BME280;21561;55.654;37.592;2023-07-13T00:04:23;98443.69;;;12.05;94.60
35443;BME280;21561;55.654;37.592;2023-07-13T00:06:53;98430.78;;;12.01;94.59
35443;BME280;21561;55.654;37.592;2023-07-13T00:09:21;98441.28;;;11.98;94.99
35443;BME280;21561;55.654;37.592;2023-07-13T00:11:55;98442.19;;;11.97;95.42
35443;BME280;21561;55.654;37.592;2023-07-13T00:14:25;98442.25;;;11.96;95.25
35443;BME280;21561;55.654;37.592;2023-07-13T00:16:52;98437.97;;;11.93;95.54
35443;BME280;21561;55.654;37.592;2023-07-13T00:19:20;98431.97;;;11.91;95.76
35443;BME280;21561;55.654;37.592;2023-07-13T00:21:47;98434.53;;;11.93;95.95
35443;BME280;21561;55.654;37.592;2023-07-13T00:24:16;98435.38;;;11.93;95.79
35443;BME280;21561;55.654;37.592;2023-07-13T00:26:50;98428.44;;;11.94;95.75
35443;BME280;21561;55.654;37.592;2023-07-13T00:29:17;98437.88;;;11.96;95.40
35443;BME280;21561;55.654;37.592;2023-07-13T00:31:44;98448.19;;;11.99;95.13
35443;BME280;21561;55.654;37.592;2023-07-13T00:34:11;98428.16;;;12.03;95.11
35443;BME280;21561;55.654;37.592;2023-07-13T00:36:38;98447.09;;;12.07;94.72
35443;BME280;21561;55.654;37.592;2023-07-13T00:39:05;98425.38;;;12.08;94.69
35443;BME280;21561;55.654;37.592;2023-07-13T00:41:32;98427.09;;;12.09;95.00
35443;BME280;21561;55.654;37.592;2023-07-13T00:43:59;98433.19;;;12.08;94.62
35443;BME280;21561;55.654;37.592;2023-07-13T00:46:29;98433.19;;;12.08;94.92
35443;BME280;21561;55.654;37.592;2023-07-13T00:49:00;98433.25;;;12.06;94.86
35443;BME280;21561;55.654;37.592;2023-07-13T00:51:32;98428.84;;;12.08;95.04
35443;BME280;21561;55.654;37.592;2023-07-13T00:54:04;98428.84;;;12.08;94.99
35443;BME280;21561;55.654;37.592;2023-07-13T00:56:33;98425.28;;;12.11;95.06
35443;BME280;21561;55.654;37.592;2023-07-13T00:59:02;98431.28;;;12.13;94.67
35443;BME280;21561;55.654;37.592;2023-07-13T01:01:29;98426.88;;;12.15;94.66
35443;BME280;21561;55.654;37.592;2023-07-13T01:03:57;98421.81;;;12.12;94.83
35443;BME280;21561;55.654;37.592;2023-07-13T01:06:24;98426.88;;;12.15;95.15
35443;BME280;21561;55.654;37.592;2023-07-13T01:08:51;98423.47;;;12.13;94.89
35443;BME280;21561;55.654;37.592;2023-07-13T01:11:20;98425.28;;;12.11;95.21
35443;BME280;21561;55.654;37.592;2023-07-13T01:13:48;98425.38;;;12.08;95.41
35443;BME280;21561;55.654;37.592;2023-07-13T01:16:29;98424.50;;;12.09;95.83
35443;BME280;21561;55.654;37.592;2023-07-13T01:18:57;98423.69;;;12.07;95.71
35443;BME280;21561;55.654;37.592;2023-07-13T01:21:25;98420.31;;;12.05;95.94
35443;BME280;21561;55.654;37.592;2023-07-13T01:23:53;98420.38;;;12.01;96.28
35443;BME280;21561;55.654;37.592;2023-07-13T01:26:20;98419.44;;;12.04;96.19
35443;BME280;21561;55.654;37.592;2023-07-13T01:28:47;98421.97;;;12.06;96.31
35443;BME280;21561;55.654;37.592;2023-07-13T01:31:14;98411.63;;;12.04;96.27
35443;BME280;21561;55.654;37.592;2023-07-13T01:33:41;98414.31;;;12.02;96.44
35443;BME280;21561;55.654;37.592;2023-07-13T01:36:09;98412.53;;;12.03;96.50
35443;BME280;21561;55.654;37.592;2023-07-13T01:38:36;98403.06;;;12.00;96.95
35443;BME280;21561;55.654;37.592;2023-07-13T01:41:03;98406.59;;;11.99;97.13
35443;BME280;21561;55.654;37.592;2023-07-13T01:43:31;98411.88;;;11.96;97.41
35443;BME280;21561;55.654;37.592;2023-07-13T01:45:59;98401.50;;;11.96;97.59
35443;BME280;21561;55.654;37.592;2023-07-13T01:48:46;98409.28;;;11.96;97.50
35443;BME280;21561;55.654;37.592;2023-07-13T01:51:12;98401.50;;;11.96;97.47
35443;BME280;21561;55.654;37.592;2023-07-13T01:53:40;98401.50;;;11.96;97.81
35443;BME280;21561;55.654;37.592;2023-07-13T01:56:07;98398.03;;;11.96;97.66
35443;BME280;21561;55.654;37.592;2023-07-13T01:58:34;98391.09;;;11.96;97.67
35443;BME280;21561;55.654;37.592;2023-07-13T02:01:01;98393.00;;;11.91;98.21
35443;BME280;21561;55.654;37.592;2023-07-13T02:03:28;98391.19;;;11.93;98.31
35443;BME280;21561;55.654;37.592;2023-07-13T02:05:55;98389.50;;;11.92;98.40
35443;BME280;21561;55.654;37.592;2023-07-13T02:08:22;98392.16;;;11.89;98.65
35443;BME280;21561;55.654;37.592;2023-07-13T02:10:48;98391.38;;;11.87;98.84
35443;BME280;21561;55.654;37.592;2023-07-13T02:13:15;98394.00;;;11.85;99.02
35443;BME280;21561;55.654;37.592;2023-07-13T02:15:42;98384.53;;;11.84;99.36
35443;BME280;21561;55.654;37.592;2023-07-13T02:18:09;98389.66;;;11.86;99.21
35443;BME280;21561;55.654;37.592;2023-07-13T02:20:56;98388.81;;;11.85;99.30
35443;BME280;21561;55.654;37.592;2023-07-13T02:23:23;98387.94;;;11.87;99.34
35443;BME280;21561;55.654;37.592;2023-07-13T02:25:57;98400.03;;;11.86;99.66
35443;BME280;21561;55.654;37.592;2023-07-13T02:28:24;98394.81;;;11.88;99.34
35443;BME280;21561;55.654;37.592;2023-07-13T02:30:51;98393.06;;;11.88;99.80
35443;BME280;21561;55.654;37.592;2023-07-13T02:33:18;98385.97;;;11.93;99.34
35443;BME280;21561;55.654;37.592;2023-07-13T02:35:45;98399.06;;;11.92;99.71
35443;BME280;21561;55.654;37.592;2023-07-13T02:38:12;98386.09;;;11.90;99.65
35443;BME280;21561;55.654;37.592;2023-07-13T02:40:39;98392.91;;;11.94;99.42
35443;BME280;21561;55.654;37.592;2023-07-13T02:43:06;98372.19;;;11.91;99.56
35443;BME280;21561;55.654;37.592;2023-07-13T02:45:33;98379.00;;;11.95;99.55
35443;BME280;21561;55.654;37.592;2023-07-13T02:48:00;98362.53;;;11.95;99.23
35443;BME280;21561;55.654;37.592;2023-07-13T02:50:26;98365.00;;;11.99;99.58
35443;BME280;21561;55.654;37.592;2023-07-13T02:52:53;98371.78;;;12.03;99.43
35443;BME280;21561;55.654;37.592;2023-07-13T02:55:20;98371.88;;;12.00;99.71
35443;BME280;21561;55.654;37.592;2023-07-13T02:57:47;98382.28;;;12.00;99.80
35443;BME280;21561;55.654;37.592;2023-07-13T03:00:14;98370.16;;;12.01;99.58
35443;BME280;21561;55.654;37.592;2023-07-13T03:02:43;98368.50;;;11.98;99.69
35443;BME280;21561;55.654;37.592;2023-07-13T03:05:10;98385.81;;;11.99;100.00
35443;BME280;21561;55.654;37.592;2023-07-13T03:07:39;98378.88;;;11.98;99.93
35443;BME280;21561;55.654;37.592;2023-07-13T03:10:07;98381.44;;;12.00;100.00
35443;BME280;21561;55.654;37.592;2023-07-13T03:12:34;98380.59;;;11.99;100.00
35443;BME280;21561;55.654;37.592;2023-07-13T03:15:01;98371.78;;;12.03;99.89
35443;BME280;21561;55.654;37.592;2023-07-13T03:17:30;98377.81;;;12.04;99.89
35443;BME280;21561;55.654;37.592;2023-07-13T03:19:57;98370.91;;;12.05;100.00
35443;BME280;21561;55.654;37.592;2023-07-13T03:22:24;98369.03;;;12.08;99.79
35443;BME280;21561;55.654;37.592;2023-07-13T03:24:51;98378.47;;;12.11;99.87
35443;BME280;21561;55.654;37.592;2023-07-13T03:27:18;98386.28;;;12.11;100.00
35443;BME280;21561;55.654;37.592;2023-07-13T03:29:45;98381.78;;;12.16;99.65
35443;BME280;21561;55.654;37.592;2023-07-13T03:32:12;98392.19;;;12.16;99.59
35443;BME280;21561;55.654;37.592;2023-07-13T03:34:39;98388.69;;;12.17;99.75
35443;BME280;21561;55.654;37.592;2023-07-13T03:37:05;98385.19;;;12.18;99.58
35443;BME280;21561;55.654;37.592;2023-07-13T03:39:32;98365.13;;;12.21;99.43
35443;BME280;21561;55.654;37.592;2023-07-13T03:42:00;98374.69;;;12.21;99.53
35443;BME280;21561;55.654;37.592;2023-07-13T03:44:27;98379.78;;;12.24;99.48
35443;BME280;21561;55.654;37.592;2023-07-13T03:46:54;98390.06;;;12.27;99.38
35443;BME280;21561;55.654;37.592;2023-07-13T03:49:21;98377.00;;;12.29;99.25
35443;BME280;21561;55.654;37.592;2023-07-13T03:51:48;98379.56;;;12.30;98.93
35443;BME280;21561;55.654;37.592;2023-07-13T03:54:19;98398.69;;;12.29;98.98
35443;BME280;21561;55.654;37.592;2023-07-13T03:56:46;98383.09;;;12.29;99.02
35443;BME280;21561;55.654;37.592;2023-07-13T03:59:13;98386.34;;;12.34;99.14
35443;BME280;21561;55.654;37.592;2023-07-13T04:01:40;98383.66;;;12.37;98.67
35443;BME280;21561;55.654;37.592;2023-07-13T04:04:07;98394.75;;;12.43;98.63
35443;BME280;21561;55.654;37.592;2023-07-13T04:06:34;98380.72;;;12.47;98.71
35443;BME280;21561;55.654;37.592;2023-07-13T04:09:02;98387.41;;;12.54;98.22
35443;BME280;21561;55.654;37.592;2023-07-13T04:11:33;98387.31;;;12.57;97.59
35443;BME280;21561;55.654;37.592;2023-07-13T04:14:00;98391.41;;;12.64;97.94
35443;BME280;21561;55.654;37.592;2023-07-13T04:16:27;98387.03;;;12.65;97.43
35443;BME280;21561;55.654;37.592;2023-07-13T04:18:55;98386.19;;;12.64;97.27
35443;BME280;21561;55.654;37.592;2023-07-13T04:21:27;98392.09;;;12.69;97.45
35443;BME280;21561;55.654;37.592;2023-07-13T04:23:54;98391.16;;;12.70;97.34
35443;BME280;21561;55.654;37.592;2023-07-13T04:26:22;98391.06;;;12.73;96.82
35443;BME280;21561;55.654;37.592;2023-07-13T04:28:50;98387.38;;;12.79;96.57
35443;BME280;21561;55.654;37.592;2023-07-13T04:31:17;98386.38;;;12.83;96.43
35443;BME280;21561;55.654;37.592;2023-07-13T04:33:45;98381.09;;;12.85;96.26
35443;BME280;21561;55.654;37.592;2023-07-13T04:36:15;98369.69;;;12.89;96.18
35443;BME280;21561;55.654;37.592;2023-07-13T04:38:43;98377.38;;;12.92;95.91
35443;BME280;21561;55.654;37.592;2023-07-13T04:41:10;98376.38;;;12.96;95.65
35443;BME280;21561;55.654;37.592;2023-07-13T04:43:37;98368.56;;;12.96;95.65
35443;BME280;21561;55.654;37.592;2023-07-13T04:46:05;98379.75;;;12.98;95.22
35443;BME280;21561;55.654;37.592;2023-07-13T04:48:33;98375.34;;;13.00;95.36
35443;BME280;21561;55.654;37.592;2023-07-13T04:51:01;98384.78;;;13.03;94.95
35443;BME280;21561;55.654;37.592;2023-07-13T04:53:29;98381.19;;;13.07;94.77
35443;BME280;21561;55.654;37.592;2023-07-13T04:55:56;98376.56;;;13.13;94.79
35443;BME280;21561;55.654;37.592;2023-07-13T04:58:24;98380.56;;;13.22;94.57
35443;BME280;21561;55.654;37.592;2023-07-13T05:00:52;98380.38;;;13.28;93.75
35443;BME280;21561;55.654;37.592;2023-07-13T05:03:19;98375.91;;;13.32;93.70
35443;BME280;21561;55.654;37.592;2023-07-13T05:06:00;98379.19;;;13.37;93.78
35443;BME280;21561;55.654;37.592;2023-07-13T05:08:28;98381.84;;;13.35;92.90
35443;BME280;21561;55.654;37.592;2023-07-13T05:10:55;98381.66;;;13.40;92.82
35443;BME280;21561;55.654;37.592;2023-07-13T05:13:22;98380.50;;;13.47;92.44
35443;BME280;21561;55.654;37.592;2023-07-13T05:15:57;98381.75;;;13.61;92.71
35443;BME280;21561;55.654;37.592;2023-07-13T05:18:24;98381.44;;;13.68;92.21
35443;BME280;21561;55.654;37.592;2023-07-13T05:21:02;98380.72;;;13.85;91.63
35443;BME280;21561;55.654;37.592;2023-07-13T05:23:30;98378.78;;;13.90;91.53
35443;BME280;21561;55.654;37.592;2023-07-13T05:25:58;98385.22;;;14.04;90.61
35443;BME280;21561;55.654;37.592;2023-07-13T05:28:26;98395.66;;;14.04;89.45
35443;BME280;21561;55.654;37.592;2023-07-13T05:30:54;98379.53;;;13.94;89.80
35443;BME280;21561;55.654;37.592;2023-07-13T05:33:22;98391.78;;;13.92;90.25
35443;BME280;21561;55.654;37.592;2023-07-13T05:35:49;98392.75;;;13.89;88.38
35443;BME280;21561;55.654;37.592;2023-07-13T05:38:16;98384.78;;;13.92;89.00
35443;BME280;21561;55.654;37.592;2023-07-13T05:40:44;98385.47;;;13.98;88.34
35443;BME280;21561;55.654;37.592;2023-07-13T05:43:11;98381.84;;;14.02;88.51
35443;BME280;21561;55.654;37.592;2023-07-13T05:45:39;98381.50;;;14.09;87.38
35443;BME280;21561;55.654;37.592;2023-07-13T05:48:07;98390.00;;;14.15;87.01
35443;BME280;21561;55.654;37.592;2023-07-13T05:50:34;98388.22;;;14.15;86.50
35443;BME280;21561;55.654;37.592;2023-07-13T05:53:01;98386.16;;;14.23;86.10
35443;BME280;21561;55.654;37.592;2023-07-13T05:55:28;98384.44;;;14.22;84.41
35443;BME280;21561;55.654;37.592;2023-07-13T05:57:55;98374.66;;;14.27;84.39
35443;BME280;21561;55.654;37.592;2023-07-13T06:00:22;98370.22;;;14.29;84.69
35443;BME280;21561;55.654;37.592;2023-07-13T06:02:48;98375.31;;;14.32;84.02
35443;BME280;21561;55.654;37.592;2023-07-13T06:05:17;98379.16;;;14.44;84.59
35443;BME280;21561;55.654;37.592;2023-07-13T06:07:44;98378.59;;;14.58;82.58
35443;BME280;21561;55.654;37.592;2023-07-13T06:10:10;98378.06;;;14.70;81.90
35443;BME280;21561;55.654;37.592;2023-07-13T06:12:38;98381.03;;;14.82;81.73
35443;BME280;21561;55.654;37.592;2023-07-13T06:15:06;98379.19;;;14.84;81.10
35443;BME280;21561;55.654;37.592;2023-07-13T06:17:33;98373.41;;;14.96;80.51
35443;BME280;21561;55.654;37.592;2023-07-13T06:20:00;98365.16;;;15.05;80.06
35443;BME280;21561;55.654;37.592;2023-07-13T06:22:29;98357.69;;;15.17;78.78
35443;BME280;21561;55.654;37.592;2023-07-13T06:24:56;98356.31;;;15.27;77.69
35443;BME280;21561;55.654;37.592;2023-07-13T06:27:23;98353.06;;;15.41;75.88
35443;BME280;21561;55.654;37.592;2023-07-13T06:29:50;98347.97;;;15.57;75.75
35443;BME280;21561;55.654;37.592;2023-07-13T06:32:17;98351.13;;;15.63;75.16
35443;BME280;21561;55.654;37.592;2023-07-13T06:34:44;98348.91;;;15.73;74.83
35443;BME280;21561;55.654;37.592;2023-07-13T06:37:11;98351.91;;;15.84;73.53
35443;BME280;21561;55.654;37.592;2023-07-13T06:39:38;98352.81;;;15.83;70.43
35443;BME280;21561;55.654;37.592;2023-07-13T06:42:06;98348.13;;;15.90;70.78
35443;BME280;21561;55.654;37.592;2023-07-13T06:44:33;98350.44;;;15.96;71.28
35443;BME280;21561;55.654;37.592;2023-07-13T06:47:00;98346.19;;;16.11;70.99
35443;BME280;21561;55.654;37.592;2023-07-13T06:49:27;98339.72;;;16.18;69.83
35443;BME280;21561;55.654;37.592;2023-07-13T06:51:54;98345.06;;;16.17;68.56
35443;BME280;21561;55.654;37.592;2023-07-13T06:54:21;98346.44;;;16.24;67.96
35443;BME280;21561;55.654;37.592;2023-07-13T06:56:48;98346.94;;;16.31;68.43
35443;BME280;21561;55.654;37.592;2023-07-13T06:59:15;98354.56;;;16.35;69.05
35443;BME280;21561;55.654;37.592;2023-07-13T07:01:42;98356.72;;;16.27;66.81
35443;BME280;21561;55.654;37.592;2023-07-13T07:04:09;98379.50;;;16.08;66.24
35443;BME280;21561;55.654;37.592;2023-07-13T07:06:36;98373.69;;;16.02;66.94
35443;BME280;21561;55.654;37.592;2023-07-13T07:09:03;98353.44;;;16.06;67.94
35443;BME280;21561;55.654;37.592;2023-07-13T07:11:29;98364.06;;;16.03;68.92
35443;BME280;21561;55.654;37.592;2023-07-13T07:13:56;98357.59;;;16.10;68.37
35443;BME280;21561;55.654;37.592;2023-07-13T07:16:24;98350.03;;;16.04;68.65
35443;BME280;21561;55.654;37.592;2023-07-13T07:18:51;98346.50;;;16.05;68.86
35443;BME280;21561;55.654;37.592;2023-07-13T07:21:18;98357.44;;;16.13;69.56
35443;BME280;21561;55.654;37.592;2023-07-13T07:23:45;98368.97;;;16.09;66.62
35443;BME280;21561;55.654;37.592;2023-07-13T07:26:12;98365.50;;;16.09;68.43
35443;BME280;21561;55.654;37.592;2023-07-13T07:28:39;98380.31;;;16.10;68.33
35443;BME280;21561;55.654;37.592;2023-07-13T07:31:11;98374.66;;;16.00;68.60
35443;BME280;21561;55.654;37.592;2023-07-13T07:33:41;98365.03;;;16.00;69.05
35443;BME280;21561;55.654;37.592;2023-07-13T07:36:08;98365.91;;;16.01;69.87
35443;BME280;21561;55.654;37.592;2023-07-13T07:38:38;98370.75;;;16.09;70.34
35443;BME280;21561;55.654;37.592;2023-07-13T07:41:05;98365.38;;;16.12;70.73
35443;BME280;21561;55.654;37.592;2023-07-13T07:43:35;98379.84;;;16.19;71.70
35443;BME280;21561;55.654;37.592;2023-07-13T07:46:03;98369.88;;;16.26;71.16
35443;BME280;21561;55.654;37.592;2023-07-13T07:48:30;98364.50;;;16.29;71.26
35443;BME280;21561;55.654;37.592;2023-07-13T07:50:57;98365.97;;;16.34;71.55
35443;BME280;21561;55.654;37.592;2023-07-13T07:53:24;98367.34;;;16.41;71.64
35443;BME280;21561;55.654;37.592;2023-07-13T07:55:51;98369.66;;;16.48;71.37
35443;BME280;21561;55.654;37.592;2023-07-13T07:58:21;98374.13;;;16.46;70.50
35443;BME280;21561;55.654;37.592;2023-07-13T08:00:51;98377.44;;;16.49;71.17
35443;BME280;21561;55.654;37.592;2023-07-13T08:03:21;98382.69;;;16.49;71.43
35443;BME280;21561;55.654;37.592;2023-07-13T08:05:54;98377.88;;;16.40;71.12
35443;BME280;21561;55.654;37.592;2023-07-13T08:08:24;98367.88;;;16.31;71.52
35443;BME280;21561;55.654;37.592;2023-07-13T08:10:52;98366.34;;;16.27;72.29
35443;BME280;21561;55.654;37.592;2023-07-13T08:13:25;98377.91;;;16.22;70.37
35443;BME280;21561;55.654;37.592;2023-07-13T08:15:52;98373.59;;;16.21;71.36
35443;BME280;21561;55.654;37.592;2023-07-13T08:18:19;98371.91;;;16.20;72.00
35443;BME280;21561;55.654;37.592;2023-07-13T08:20:46;98383.38;;;16.18;72.40
35443;BME280;21561;55.654;37.592;2023-07-13T08:23:13;98381.75;;;16.15;70.72
35443;BME280;21561;55.654;37.592;2023-07-13T08:25:40;98388.44;;;16.03;71.85
35443;BME280;21561;55.654;37.592;2023-07-13T08:28:06;98388.50;;;16.02;71.17
35443;BME280;21561;55.654;37.592;2023-07-13T08:30:33;98383.47;;;15.99;70.79
35443;BME280;21561;55.654;37.592;2023-07-13T08:33:01;98383.19;;;15.86;71.57
35443;BME280;21561;55.654;37.592;2023-07-13T08:35:28;98378.91;;;15.85;70.77
35443;BME280;21561;55.654;37.592;2023-07-13T08:37:55;98379.09;;;15.80;71.56
35443;BME280;21561;55.654;37.592;2023-07-13T08:40:25;98382.03;;;15.74;67.00
35443;BME280;21561;55.654;37.592;2023-07-13T08:42:58;98383.56;;;15.78;69.03
35443;BME280;21561;55.654;37.592;2023-07-13T08:48:15;98393.94;;;15.61;72.34
35443;BME280;21561;55.654;37.592;2023-07-13T08:53:45;98386.28;;;15.39;74.17
35443;BME280;21561;55.654;37.592;2023-07-13T08:56:22;98391.44;;;15.40;76.36
35443;BME280;21561;55.654;37.592;2023-07-13T08:58:55;98405.28;;;15.42;77.43
35443;BME280;21561;55.654;37.592;2023-07-13T09:04:36;98403.66;;;15.21;82.41
35443;BME280;21561;55.654;37.592;2023-07-13T09:07:16;98401.41;;;15.13;82.45
35443;BME280;21561;55.654;37.592;2023-07-13T09:12:44;98404.00;;;14.94;86.60
35443;BME280;21561;55.654;37.592;2023-07-13T09:15:36;98408.56;;;14.89;86.43
35443;BME280;21561;55.654;37.592;2023-07-13T09:21:18;98402.84;;;14.81;88.58
35443;BME280;21561;55.654;37.592;2023-07-13T09:23:42;98408.50;;;14.72;88.72
35443;BME280;21561;55.654;37.592;2023-07-13T09:28:45;98417.94;;;14.74;89.43
35443;BME280;21561;55.654;37.592;2023-07-13T09:31:20;98424.16;;;14.72;90.54
35443;BME280;21561;55.654;37.592;2023-07-13T09:33:50;98421.91;;;14.62;89.03
35443;BME280;21561;55.654;37.592;2023-07-13T09:36:24;98417.75;;;14.58;92.27
35443;BME280;21561;55.654;37.592;2023-07-13T09:42:05;98430.00;;;14.36;92.47
35443;BME280;21561;55.654;37.592;2023-07-13T09:44:37;98421.75;;;14.24;94.62
35443;BME280;21561;55.654;37.592;2023-07-13T09:47:17;98419.41;;;14.18;96.77
35443;BME280;21561;55.654;37.592;2023-07-13T09:49:45;98421.75;;;14.04;96.59
35443;BME280;21561;55.654;37.592;2023-07-13T09:52:15;98427.19;;;13.98;98.11
35443;BME280;21561;55.654;37.592;2023-07-13T09:54:48;98430.94;;;13.90;97.22
35443;BME280;21561;55.654;37.592;2023-07-13T09:57:18;98428.59;;;13.84;98.49
35443;BME280;21561;55.654;37.592;2023-07-13T09:59:48;98422.81;;;13.76;100.00
35443;BME280;21561;55.654;37.592;2023-07-13T10:04:56;98427.38;;;13.71;99.87
35443;BME280;21561;55.654;37.592;2023-07-13T10:07:25;98431.06;;;13.65;100.00
35443;BME280;21561;55.654;37.592;2023-07-13T10:09:58;98438.06;;;13.65;99.79
35443;BME280;21561;55.654;37.592;2023-07-13T10:12:35;98424.19;;;13.64;99.36
35443;BME280;21561;55.654;37.592;2023-07-13T10:15:07;98428.78;;;13.58;100.00
35443;BME280;21561;55.654;37.592;2023-07-13T10:17:51;98415.06;;;13.52;100.00
35443;BME280;21561;55.654;37.592;2023-07-13T10:20:20;98417.88;;;13.48;100.00
35443;BME280;21561;55.654;37.592;2023-07-13T10:23:04;98427.47;;;13.46;100.00
35443;BME280;21561;55.654;37.592;2023-07-13T10:25:36;98426.56;;;13.47;100.00
35443;BME280;21561;55.654;37.592;2023-07-13T10:28:23;98423.91;;;13.48;100.00
35443;BME280;21561;55.654;37.592;2023-07-13T10:30:53;98432.53;;;13.50;100.00
35443;BME280;21561;55.654;37.592;2023-07-13T10:33:21;98439.56;;;13.48;99.30
35443;BME280;21561;55.654;37.592;2023-07-13T10:35:52;98436.91;;;13.50;100.00
35443;BME280;21561;55.654;37.592;2023-07-13T10:38:22;98440.59;;;13.44;100.00
35443;BME280;21561;55.654;37.592;2023-07-13T10:41:04;98443.50;;;13.35;96.28
35443;BME280;21561;55.654;37.592;2023-07-13T10:43:44;98440.00;;;13.36;100.00
35443;BME280;21561;55.654;37.592;2023-07-13T10:46:14;98437.50;;;13.33;100.00
35443;BME280;21561;55.654;37.592;2023-07-13T10:48:45;98450.81;;;13.25;100.00
35443;BME280;21561;55.654;37.592;2023-07-13T10:51:16;98441.38;;;13.23;100.00
35443;BME280;21561;55.654;37.592;2023-07-13T10:53:44;98447.69;;;13.15;100.00
35443;BME280;21561;55.654;37.592;2023-07-13T10:56:44;98448.66;;;13.13;100.00
35443;BME280;21561;55.654;37.592;2023-07-13T10:59:27;98458.22;;;13.12;100.00
35443;BME280;21561;55.654;37.592;2023-07-13T11:02:00;98453.00;;;13.12;100.00
35443;BME280;21561;55.654;37.592;2023-07-13T11:04:47;98447.06;;;13.09;100.00
35443;BME280;21561;55.654;37.592;2023-07-13T11:07:51;98439.31;;;13.07;100.00
35443;BME280;21561;55.654;37.592;2023-07-13T11:10:46;98446.34;;;13.05;100.00
35443;BME280;21561;55.654;37.592;2023-07-13T11:13:38;98450.69;;;13.05;100.00
35443;BME280;21561;55.654;37.592;2023-07-13T11:21:32;98443.84;;;13.02;100.00
35443;BME280;21561;55.654;37.592;2023-07-13T11:24:14;98441.13;;;13.05;100.00
35443;BME280;21561;55.654;37.592;2023-07-13T11:29:32;98436.06;;;13.01;100.00
35443;BME280;21561;55.654;37.592;2023-07-13T11:32:01;98435.22;;;13.00;100.00
35443;BME280;21561;55.654;37.592;2023-07-13T11:34:48;98431.03;;;12.96;100.00
35443;BME280;21561;55.654;37.592;2023-07-13T11:37:17;98424.97;;;12.95;100.00
35443;BME280;21561;55.654;37.592;2023-07-13T11:39:46;98424.03;;;12.98;100.00
35443;BME280;21561;55.654;37.592;2023-07-13T11:42:16;98423.09;;;12.99;100.00
35443;BME280;21561;55.654;37.592;2023-07-13T11:44:47;98417.09;;;12.97;100.00
35443;BME280;21561;55.654;37.592;2023-07-13T11:47:33;98417.09;;;12.97;100.00
35443;BME280;21561;55.654;37.592;2023-07-13T11:50:00;98420.50;;;12.99;100.00
35443;BME280;21561;55.654;37.592;2023-07-13T11:52:35;98423.19;;;12.97;100.00
35443;BME280;21561;55.654;37.592;2023-07-13T11:55:13;98421.38;;;12.99;100.00
35443;BME280;21561;55.654;37.592;2023-07-13T11:57:58;98423.91;;;13.01;100.00
35443;BME280;21561;55.654;37.592;2023-07-13T12:00:31;98419.56;;;13.02;100.00
35443;BME280;21561;55.654;37.592;2023-07-13T12:03:02;98436.03;;;13.02;100.00
35443;BME280;21561;55.654;37.592;2023-07-13T12:05:31;98419.31;;;13.08;100.00
35443;BME280;21561;55.654;37.592;2023-07-13T12:08:08;98428.91;;;13.07;100.00
35443;BME280;21561;55.654;37.592;2023-07-13T12:10:56;98426.34;;;13.06;100.00
35443;BME280;21561;55.654;37.592;2023-07-13T12:13:27;98442.81;;;13.06;100.00
35443;BME280;21561;55.654;37.592;2023-07-13T12:15:56;98437.50;;;13.09;100.00
35443;BME280;21561;55.654;37.592;2023-07-13T12:18:29;98446.22;;;13.08;100.00
35443;BME280;21561;55.654;37.592;2023-07-13T12:20:58;98434.16;;;13.06;100.00
35443;BME280;21561;55.654;37.592;2023-07-13T12:23:33;98416.84;;;13.05;100.00
35443;BME280;21561;55.654;37.592;2023-07-13T12:26:05;98433.38;;;13.04;100.00
35443;BME280;21561;55.654;37.592;2023-07-13T12:28:36;98429.00;;;13.04;100.00
35443;BME280;21561;55.654;37.592;2023-07-13T12:31:08;98420.41;;;13.02;100.00
35443;BME280;21561;55.654;37.592;2023-07-13T12:33:47;98426.56;;;12.99;100.00
35443;BME280;21561;55.654;37.592;2023-07-13T12:36:13;98423.91;;;13.01;100.00
35443;BME280;21561;55.654;37.592;2023-07-13T12:38:41;98423.97;;;12.99;100.00
35443;BME280;21561;55.654;37.592;2023-07-13T12:41:08;98418.72;;;13.01;100.00
35443;BME280;21561;55.654;37.592;2023-07-13T12:43:38;98415.28;;;12.99;100.00
35443;BME280;21561;55.654;37.592;2023-07-13T12:46:20;98419.94;;;12.91;100.00
35443;BME280;21561;55.654;37.592;2023-07-13T12:48:51;98405.34;;;12.87;100.00
35443;BME280;21561;55.654;37.592;2023-07-13T12:51:38;98414.28;;;12.79;100.00
35443;BME280;21561;55.654;37.592;2023-07-13T12:54:16;98417.94;;;12.74;100.00
35443;BME280;21561;55.654;37.592;2023-07-13T12:56:49;98411.09;;;12.71;100.00
35443;BME280;21561;55.654;37.592;2023-07-13T12:59:21;98410.19;;;12.72;100.00
35443;BME280;21561;55.654;37.592;2023-07-13T13:01:49;98427.50;;;12.73;100.00
35443;BME280;21561;55.654;37.592;2023-07-13T13:04:17;98429.25;;;12.73;100.00
35443;BME280;21561;55.654;37.592;2023-07-13T13:06:49;98424.84;;;12.75;100.00
35443;BME280;21561;55.654;37.592;2023-07-13T13:09:17;98421.41;;;12.74;100.00
35443;BME280;21561;55.654;37.592;2023-07-13T13:11:45;98420.53;;;12.74;100.00
35443;BME280;21561;55.654;37.592;2023-07-13T13:14:12;98417.88;;;12.75;100.00
35443;BME280;21561;55.654;37.592;2023-07-13T13:16:46;98416.19;;;12.74;100.00
35443;BME280;21561;55.654;37.592;2023-07-13T13:21:46;98398.06;;;12.71;100.00
35443;BME280;21561;55.654;37.592;2023-07-13T13:24:15;98410.25;;;12.71;100.00
35443;BME280;21561;55.654;37.592;2023-07-13T13:26:44;98402.50;;;12.69;100.00
35443;BME280;21561;55.654;37.592;2023-07-13T13:29:16;98411.13;;;12.70;100.00
35443;BME280;21561;55.654;37.592;2023-07-13T13:31:44;98411.94;;;12.72;100.00
35443;BME280;21561;55.654;37.592;2023-07-13T13:34:14;98414.47;;;12.73;100.00
35443;BME280;21561;55.654;37.592;2023-07-13T13:36:42;98404.88;;;12.75;100.00